.
WxDataArchive / Data Records for 2014-04-03
2014-04-02 April 2014 2014-04-04

Data Records for Thursday, 03 April 2014

Time	Temp	Chill	HIndex	Humid	Dewpt	 Wind 	HiWind	WindDir	Rain 	Barom
-----	----	-----	------	-----	-----	------	------	-------	-----	-----
00:00	48.3	46.9	48.3	55	32.9	4	7	90	0.00	30.083 
00:05	48.3	48.3	48.3	54	32.4	3	7	90	0.00	30.083 
00:10	48.3	48.3	48.3	54	32.4	3	7	90	0.00	30.083 
00:15	48.2	46.8	48.2	54	32.3	4	7	90	0.00	30.085 
00:20	48.0	48.0	48.0	54	32.2	3	6	112	0.00	30.085 
00:25	48.0	48.0	48.0	54	32.2	3	6	90	0.00	30.085 
00:30	47.7	46.2	47.7	54	31.9	4	10	90	0.00	30.078 
00:35	47.6	45.4	47.6	54	31.8	5	11	90	0.00	30.078 
00:40	47.4	45.2	47.4	54	31.6	5	12	90	0.00	30.078 
00:45	47.1	44.8	47.1	55	31.8	5	11	90	0.00	30.066 
00:50	46.8	43.9	46.8	56	31.9	6	13	90	0.00	30.066 
00:55	46.5	43.5	46.5	56	31.7	6	13	90	0.00	30.066 
01:00	46.2	43.8	46.2	57	31.8	5	11	90	0.00	30.054 
01:05	46.1	43.6	46.1	58	32.2	5	12	90	0.00	30.054 
01:10	46.0	43.5	46.0	58	32.1	5	11	112	0.00	30.054 
01:15	46.0	43.5	46.0	58	32.1	5	12	112	0.00	30.060 
01:20	45.8	43.3	45.8	58	31.9	5	10	112	0.00	30.060 
01:25	45.8	44.0	45.8	58	31.9	4	12	90	0.00	30.060 
01:30	45.8	44.0	45.8	59	32.3	4	9	90	0.00	30.069 
01:35	45.7	43.9	45.7	59	32.2	4	11	112	0.00	30.069 
01:40	45.7	45.7	45.7	59	32.2	3	10	90	0.00	30.069 
01:45	45.7	43.9	45.7	58	31.8	4	10	112	0.00	30.057 
01:50	45.7	45.7	45.7	58	31.8	3	11	112	0.00	30.057 
01:55	45.5	42.3	45.5	57	31.2	6	13	90	0.00	30.057 
02:00	45.5	41.8	45.5	54	29.8	7	15	90	0.00	30.061 
02:05	45.5	42.9	45.5	55	30.3	5	12	90	0.00	30.061 
02:10	45.4	45.4	45.4	56	30.6	3	7	90	0.00	30.061 
02:15	45.4	42.8	45.4	55	30.2	5	10	90	0.00	30.055 
02:20	45.4	43.6	45.4	54	29.7	4	10	90	0.00	30.055 
02:25	45.2	43.3	45.2	54	29.6	4	13	90	0.00	30.055 
02:30	45.2	42.0	45.2	54	29.6	6	15	112	0.00	30.051 
02:35	45.2	42.6	45.2	54	29.6	5	12	90	0.00	30.051 
02:40	45.1	41.8	45.1	55	29.9	6	11	90	0.00	30.051 
02:45	45.1	41.8	45.1	55	29.9	6	15	90	0.00	30.052 
02:50	44.9	41.0	44.9	56	30.2	7	13	112	0.00	30.052 
02:55	44.8	40.9	44.8	57	30.5	7	13	112	0.00	30.052 
03:00	44.8	42.1	44.8	57	30.5	5	16	112	0.00	30.053 
03:05	44.6	41.2	44.6	58	30.7	6	10	112	0.00	30.053 
03:10	44.5	41.1	44.5	60	31.5	6	13	112	0.00	30.053 
03:15	44.3	41.5	44.3	61	31.7	5	11	90	0.00	30.052 
03:20	44.2	40.8	44.2	63	32.4	6	12	90	0.00	30.052 
03:25	43.6	39.5	43.6	68	33.7	7	15	90	0.01	30.052 
03:30	43.1	39.5	43.1	70	34.0	6	11	90	0.00	30.040 
03:35	42.8	40.6	42.8	73	34.8	4	7	112	0.00	30.040 
03:40	42.5	40.2	42.5	75	35.1	4	9	90	0.01	30.040 
03:45	42.2	39.9	42.2	75	34.9	4	9	90	0.00	30.056 
03:50	42.1	38.9	42.1	75	34.8	5	10	90	0.00	30.056 
03:55	42.1	38.3	42.1	74	34.4	6	16	90	0.00	30.056 
04:00	41.9	39.5	41.9	76	34.9	4	10	90	0.00	30.035 
04:05	41.6	37.7	41.6	76	34.6	6	12	90	0.00	30.035 
04:10	41.5	38.2	41.5	76	34.5	5	12	90	0.00	30.035 
04:15	41.5	38.2	41.5	76	34.5	5	11	90	0.00	30.037 
04:20	41.2	38.7	41.2	77	34.5	4	12	90	0.01	30.037 
04:25	40.8	36.7	40.8	79	34.8	6	14	90	0.02	30.037 
04:30	40.3	36.8	40.3	81	34.9	5	12	90	0.01	30.053 
04:35	39.9	35.6	39.9	82	34.9	6	13	90	0.01	30.053 
04:40	39.8	36.2	39.8	83	35.1	5	13	90	0.01	30.053 
04:45	39.5	35.2	39.5	84	35.1	6	12	90	0.01	30.041 
04:50	39.3	34.9	39.3	85	35.2	6	11	90	0.02	30.041 
04:55	39.1	34.1	39.1	86	35.3	7	14	112	0.00	30.041 
05:00	38.9	34.4	38.9	86	35.1	6	11	90	0.01	30.027 
05:05	38.9	34.4	38.9	87	35.4	6	14	112	0.00	30.027 
05:10	38.8	35.9	38.8	87	35.3	4	14	112	0.00	30.027 
05:15	38.8	34.3	38.8	87	35.3	6	17	112	0.00	30.040 
05:20	38.6	34.8	38.6	87	35.1	5	15	112	0.00	30.040 
05:25	38.6	33.5	38.6	87	35.1	7	13	90	0.01	30.040 
05:30	38.5	34.0	38.5	87	35.0	6	14	90	0.01	30.033 
05:35	38.3	33.1	38.3	87	34.8	7	12	90	0.00	30.033 
05:40	38.3	33.7	38.3	87	34.8	6	16	90	0.01	30.033 
05:45	38.3	33.1	38.3	87	34.8	7	16	90	0.00	30.030 
05:50	38.3	34.5	38.3	87	34.8	5	11	90	0.00	30.030 
05:55	38.3	33.7	38.3	86	34.5	6	13	112	0.00	30.030 
06:00	38.2	33.6	38.2	85	34.1	6	13	90	0.00	30.044 
06:05	38.2	34.4	38.2	85	34.1	5	12	112	0.02	30.044 
06:10	38.0	35.0	38.0	86	34.2	4	13	112	0.04	30.044 
06:15	37.9	34.9	37.9	87	34.4	4	10	112	0.01	30.031 
06:20	37.8	33.9	37.8	88	34.6	5	17	112	0.00	30.031 
06:25	37.6	32.9	37.6	88	34.4	6	14	90	0.00	30.031 
06:30	37.5	32.8	37.5	88	34.3	6	14	90	0.01	30.021 
06:35	37.3	31.3	37.3	88	34.1	8	19	90	0.01	30.021 
06:40	37.3	32.5	37.3	88	34.1	6	17	112	0.01	30.021 
06:45	37.2	30.7	37.2	89	34.3	9	17	112	0.01	30.013 
06:50	37.0	30.9	37.0	89	34.1	8	18	112	0.01	30.013 
06:55	37.0	30.4	37.0	89	34.1	9	23	90	0.02	30.013 
07:00	37.0	30.4	37.0	90	34.3	9	18	112	0.01	29.998 
07:05	37.0	30.9	37.0	90	34.3	8	18	112	0.01	29.998 
07:10	37.0	30.9	37.0	90	34.3	8	16	112	0.00	29.998 
07:15	37.0	30.4	37.0	90	34.3	9	16	112	0.00	29.990 
07:20	37.2	30.2	37.2	89	34.3	10	16	90	0.00	29.990 
07:25	37.3	30.8	37.3	88	34.1	9	18	90	0.00	29.990 
07:30	37.5	30.5	37.5	87	34.0	10	21	90	0.00	29.979 
07:35	37.5	30.1	37.5	86	33.7	11	21	90	0.00	29.979 
07:40	37.6	31.1	37.6	86	33.8	9	16	112	0.00	29.979 
07:45	37.6	30.7	37.6	86	33.8	10	20	112	0.00	29.974 
07:50	37.6	31.1	37.6	86	33.8	9	16	112	0.00	29.974 
07:55	37.6	31.1	37.6	85	33.5	9	20	112	0.00	29.974 
08:00	37.6	31.1	37.6	86	33.8	9	17	112	0.00	29.969 
08:05	37.5	30.5	37.5	86	33.7	10	20	90	0.00	29.969 
08:10	37.5	31.5	37.5	86	33.7	8	16	112	0.00	29.969 
08:15	37.5	31.5	37.5	86	33.7	8	19	112	0.00	29.970 
08:20	37.5	31.5	37.5	86	33.7	8	18	90	0.00	29.970 
08:25	37.6	32.2	37.6	86	33.8	7	15	112	0.00	29.970 
08:30	37.5	32.1	37.5	86	33.7	7	13	90	0.00	29.978 
08:35	37.5	33.5	37.5	86	33.7	5	12	90	0.01	29.978 
08:40	37.3	31.9	37.3	87	33.8	7	15	112	0.01	29.978 
08:45	37.2	31.2	37.2	87	33.7	8	17	112	0.01	29.966 
08:50	36.9	30.3	36.9	88	33.7	9	17	112	0.01	29.966 
08:55	36.8	30.2	36.8	88	33.6	9	17	112	0.01	29.966 
09:00	36.8	30.7	36.8	89	33.9	8	14	112	0.02	29.985 
09:05	36.6	30.4	36.6	89	33.7	8	15	90	0.01	29.985 
09:10	36.6	30.4	36.6	89	33.7	8	17	90	0.02	29.985 
09:15	36.6	30.4	36.6	89	33.7	8	15	90	0.02	29.986 
09:20	36.6	31.7	36.6	90	33.9	6	15	112	0.03	29.986 
09:25	36.5	31.6	36.5	90	33.9	6	12	112	0.01	29.986 
09:30	36.5	31.6	36.5	91	34.1	6	14	112	0.03	29.986 
09:35	36.2	30.6	36.2	91	33.8	7	14	90	0.03	29.986 
09:40	36.0	30.3	36.0	91	33.6	7	13	112	0.03	29.986 
09:45	35.9	30.2	35.9	91	33.5	7	13	112	0.03	29.979 
09:50	35.8	29.5	35.8	92	33.7	8	16	90	0.03	29.979 
09:55	35.5	30.4	35.5	92	33.4	6	13	90	0.03	29.979 
10:00	35.3	29.5	35.3	92	33.2	7	14	90	0.02	29.957 
10:05	35.2	30.0	35.2	92	33.1	6	15	112	0.04	29.957 
10:10	35.0	29.8	35.0	92	32.9	6	14	112	0.03	29.957 
10:15	34.9	29.7	34.9	92	32.8	6	15	90	0.04	29.961 
10:20	34.7	29.4	34.7	92	32.6	6	15	112	0.04	29.961 
10:25	34.6	28.0	34.6	92	32.5	8	17	112	0.04	29.961 
10:30	34.4	27.8	34.4	92	32.3	8	18	112	0.03	29.927 
10:35	34.3	28.3	34.3	93	32.5	7	15	112	0.02	29.927 
10:40	34.3	29.0	34.3	93	32.5	6	14	112	0.03	29.927 
10:45	34.1	28.0	34.1	93	32.3	7	14	112	0.04	29.933 
10:50	34.1	27.4	34.1	93	32.3	8	17	112	0.04	29.933 
10:55	34.1	28.0	34.1	93	32.3	7	14	90	0.03	29.933 
11:00	34.1	29.5	34.1	93	32.3	5	12	112	0.03	29.931 
11:05	34.1	28.0	34.1	93	32.3	7	13	112	0.03	29.931 
11:10	34.0	27.3	34.0	93	32.2	8	14	112	0.03	29.931 
11:15	34.0	28.6	34.0	93	32.2	6	13	90	0.03	29.934 
11:20	33.8	33.8	33.8	93	32.0	3	10	112	0.03	29.934 
11:25	33.8	28.4	33.8	93	32.0	6	14	90	0.02	29.934 
11:30	33.7	29.1	33.7	93	31.9	5	14	112	0.04	29.950 
11:35	33.8	33.8	33.8	93	32.0	2	9	90	0.03	29.950 
11:40	33.7	30.0	33.7	93	31.9	4	17	112	0.04	29.950 
11:45	33.7	28.3	33.7	93	31.9	6	13	90	0.02	29.942 
11:50	33.5	28.0	33.5	94	32.0	6	14	112	0.02	29.942 
11:55	33.5	27.3	33.5	94	32.0	7	14	90	0.03	29.942 
12:00	33.5	28.8	33.5	94	32.0	5	11	112	0.03	29.927 
12:05	33.7	29.1	33.7	94	32.2	5	15	90	0.03	29.927 
12:10	33.7	28.3	33.7	94	32.2	6	14	112	0.02	29.927 
12:15	33.7	27.5	33.7	94	32.2	7	15	112	0.03	29.917 
12:20	33.7	27.5	33.7	94	32.2	7	16	112	0.03	29.917 
12:25	33.7	28.3	33.7	94	32.2	6	13	90	0.03	29.917 
12:30	33.8	29.2	33.8	94	32.3	5	15	90	0.05	29.917 
12:35	34.0	28.6	34.0	94	32.5	6	12	90	0.04	29.917 
12:40	34.0	29.4	34.0	94	32.5	5	12	112	0.04	29.917 
12:45	34.0	27.9	34.0	94	32.5	7	16	112	0.05	29.899 
12:50	34.1	28.7	34.1	94	32.6	6	13	112	0.03	29.899 
12:55	34.1	28.0	34.1	95	32.8	7	17	112	0.03	29.899 
13:00	34.1	28.0	34.1	95	32.8	7	17	90	0.03	29.866 
13:05	34.1	28.7	34.1	95	32.8	6	13	112	0.02	29.866 
13:10	34.1	26.8	34.1	95	32.8	9	19	112	0.02	29.866 
13:15	34.3	28.3	34.3	95	33.0	7	14	90	0.01	29.856 
13:20	34.3	28.3	34.3	95	33.0	7	16	112	0.02	29.856 
13:25	34.4	28.4	34.4	95	33.1	7	15	112	0.02	29.856 
13:30	34.4	28.4	34.4	95	33.1	7	16	90	0.02	29.836 
13:35	34.6	28.0	34.6	95	33.3	8	16	112	0.04	29.836 
13:40	34.6	27.5	34.6	95	33.3	9	17	112	0.03	29.836 
13:45	34.7	28.8	34.7	95	33.4	7	15	90	0.01	29.815 
13:50	34.7	29.4	34.7	95	33.4	6	16	112	0.03	29.815 
13:55	34.7	28.8	34.7	95	33.4	7	16	112	0.01	29.815 
14:00	34.7	28.1	34.7	95	33.4	8	15	112	0.01	29.806 
14:05	34.9	29.7	34.9	95	33.6	6	14	90	0.00	29.806 
14:10	34.9	27.8	34.9	95	33.6	9	17	112	0.01	29.806 
14:15	34.9	27.3	34.9	95	33.6	10	19	112	0.00	29.804 
14:20	35.0	28.5	35.0	95	33.7	8	20	90	0.00	29.804 
14:25	35.2	28.2	35.2	95	33.9	9	19	90	0.00	29.804 
14:30	35.2	29.4	35.2	95	33.9	7	15	112	0.00	29.802 
14:35	35.3	28.9	35.3	95	34.0	8	15	112	0.00	29.802 
14:40	35.3	31.9	35.3	95	34.0	4	13	112	0.00	29.802 
14:45	35.5	31.2	35.5	95	34.2	5	11	90	0.00	29.802 
14:50	35.3	31.0	35.3	95	34.0	5	12	90	0.00	29.802 
14:55	35.3	30.2	35.3	95	34.0	6	13	90	0.00	29.802 
15:00	35.5	30.4	35.5	95	34.2	6	15	112	0.00	29.804 
15:05	35.5	31.2	35.5	95	34.2	5	12	112	0.01	29.804 
15:10	35.6	32.2	35.6	95	34.3	4	10	112	0.01	29.804 
15:15	35.6	32.2	35.6	95	34.3	4	11	112	0.01	29.817 
15:20	35.8	35.8	35.8	95	34.5	3	13	112	0.01	29.817 
15:25	35.6	31.3	35.6	95	34.3	5	20	90	0.01	29.817 
15:30	35.6	30.5	35.6	95	34.3	6	13	112	0.01	29.808 
15:35	35.6	30.5	35.6	95	34.3	6	13	90	0.01	29.808 
15:40	35.8	32.5	35.8	95	34.5	4	7	112	0.02	29.808 
15:45	35.8	32.5	35.8	95	34.5	4	12	90	0.01	29.798 
15:50	35.9	31.7	35.9	95	34.6	5	11	112	0.00	29.798 
15:55	35.9	30.9	35.9	95	34.6	6	13	112	0.00	29.798 
16:00	35.9	30.2	35.9	95	34.6	7	14	112	0.00	29.776 
16:05	36.2	31.2	36.2	95	34.9	6	14	90	0.01	29.776 
16:10	36.2	31.2	36.2	95	34.9	6	15	90	0.00	29.776 
16:15	36.2	32.0	36.2	95	34.9	5	13	90	0.00	29.766 
16:20	36.2	31.2	36.2	95	34.9	6	13	112	0.00	29.766 
16:25	36.2	31.2	36.2	95	34.9	6	13	112	0.00	29.766 
16:30	36.2	30.0	36.2	95	34.9	8	16	90	0.01	29.744 
16:35	36.2	30.6	36.2	95	34.9	7	14	90	0.00	29.744 
16:40	36.3	31.4	36.3	95	35.0	6	15	112	0.00	29.744 
16:45	36.3	30.7	36.3	95	35.0	7	16	90	0.00	29.745 
16:50	36.3	31.4	36.3	95	35.0	6	17	90	0.00	29.745 
16:55	36.3	30.1	36.3	95	35.0	8	14	112	0.00	29.745 
17:00	36.5	32.4	36.5	95	35.2	5	15	90	0.00	29.769 
17:05	36.5	30.9	36.5	95	35.2	7	17	90	0.00	29.769 
17:10	36.6	32.5	36.6	95	35.3	5	11	90	0.00	29.769 
17:15	36.6	33.4	36.6	95	35.3	4	10	112	0.00	29.791 
17:20	36.6	31.0	36.6	95	35.3	7	15	90	0.00	29.791 
17:25	36.8	32.7	36.8	95	35.5	5	10	90	0.00	29.791 
17:30	36.8	32.7	36.8	95	35.5	5	10	90	0.00	29.788 
17:35	36.9	32.1	36.9	95	35.6	6	11	90	0.00	29.788 
17:40	36.9	32.1	36.9	95	35.6	6	13	90	0.00	29.788 
17:45	36.8	31.9	36.8	95	35.5	6	13	112	0.00	29.782 
17:50	36.9	32.1	36.9	95	35.6	6	12	90	0.00	29.782 
17:55	36.9	31.4	36.9	95	35.6	7	14	90	0.00	29.782 
18:00	36.9	31.4	36.9	95	35.6	7	14	112	0.00	29.762 
18:05	36.9	31.4	36.9	95	35.6	7	14	90	0.00	29.762 
18:10	36.9	31.4	36.9	95	35.6	7	14	90	0.00	29.762 
18:15	36.9	33.7	36.9	95	35.6	4	13	112	0.00	29.775 
18:20	36.9	33.7	36.9	95	35.6	4	14	112	0.00	29.775 
18:25	36.9	33.7	36.9	95	35.6	4	10	112	0.00	29.775 
18:30	36.9	33.7	36.9	95	35.6	4	12	112	0.00	29.792 
18:35	36.9	33.7	36.9	95	35.6	4	8	112	0.00	29.792 
18:40	36.9	32.8	36.9	95	35.6	5	13	112	0.00	29.792 
18:45	36.9	32.8	36.9	95	35.6	5	11	90	0.00	29.798 
18:50	36.9	33.7	36.9	95	35.6	4	10	90	0.00	29.798 
18:55	36.9	33.7	36.9	95	35.6	4	7	112	0.00	29.798 
19:00	37.0	33.9	37.0	95	35.7	4	10	90	0.00	29.797 
19:05	37.0	37.0	37.0	95	35.7	3	7	112	0.00	29.797 
19:10	37.0	32.9	37.0	95	35.7	5	13	112	0.00	29.797 
19:15	36.9	31.4	36.9	95	35.6	7	14	90	0.00	29.793 
19:20	36.9	33.7	36.9	95	35.6	4	9	90	0.00	29.793 
19:25	36.9	36.9	36.9	95	35.6	2	6	90	0.00	29.793 
19:30	37.0	37.0	37.0	95	35.7	3	12	90	0.00	29.801 
19:35	37.0	33.9	37.0	95	35.7	4	9	90	0.00	29.801 
19:40	37.0	33.9	37.0	95	35.7	4	9	90	0.00	29.801 
19:45	37.2	37.2	37.2	95	35.9	2	5	112	0.00	29.805 
19:50	37.2	37.2	37.2	95	35.9	2	7	112	0.00	29.805 
19:55	37.2	37.2	37.2	95	35.9	3	6	90	0.00	29.805 
20:00	37.2	37.2	37.2	95	35.9	3	6	90	0.00	29.800 
20:05	37.0	37.0	37.0	95	35.7	3	7	90	0.00	29.800 
20:10	37.0	37.0	37.0	95	35.7	3	7	90	0.00	29.800 
20:15	37.0	33.9	37.0	95	35.7	4	9	90	0.00	29.795 
20:20	37.0	37.0	37.0	95	35.7	2	7	90	0.00	29.795 
20:25	37.0	37.0	37.0	95	35.7	3	8	90	0.00	29.795 
20:30	37.0	37.0	37.0	95	35.7	3	10	90	0.00	29.795 
20:35	37.0	37.0	37.0	95	35.7	2	6	90	0.00	29.795 
20:40	37.2	37.2	37.2	95	35.9	2	6	90	0.00	29.795 
20:45	37.0	37.0	37.0	95	35.7	2	6	45	0.01	29.801 
20:50	37.0	37.0	37.0	95	35.7	2	6	90	0.00	29.801 
20:55	37.0	37.0	37.0	95	35.7	3	6	90	0.00	29.801 
21:00	37.0	37.0	37.0	95	35.7	2	6	112	0.00	29.798 
21:05	37.0	37.0	37.0	95	35.7	1	4	112	0.00	29.798 
21:10	37.0	37.0	37.0	95	35.7	1	4	112	0.00	29.798 
21:15	37.0	37.0	37.0	96	36.0	1	3	68	0.00	29.806 
21:20	37.0	37.0	37.0	96	36.0	1	4	68	0.00	29.806 
21:25	37.0	37.0	37.0	96	36.0	1	7	68	0.00	29.806 
21:30	37.2	37.2	37.2	96	36.2	2	5	112	0.00	29.810 
21:35	37.2	37.2	37.2	96	36.2	1	5	112	0.00	29.810 
21:40	37.2	37.2	37.2	96	36.2	0	5	112	0.00	29.810 
21:45	37.0	37.0	37.0	96	36.0	1	4	90	0.00	29.812 
21:50	37.0	37.0	37.0	96	36.0	1	3	90	0.00	29.812 
21:55	37.0	37.0	37.0	96	36.0	1	4	45	0.00	29.812 
22:00	36.9	36.9	36.9	96	35.9	1	5	135	0.00	29.812 
22:05	36.9	36.9	36.9	96	35.9	1	6	135	0.00	29.812 
22:10	36.8	36.8	36.8	96	35.8	2	6	90	0.00	29.812 
22:15	36.6	36.6	36.6	96	35.6	1	6	112	0.00	29.814 
22:20	36.6	36.6	36.6	96	35.6	0	2	68	0.00	29.814 
22:25	36.5	36.5	36.5	96	35.5	1	6	112	0.00	29.814 
22:30	36.5	36.5	36.5	96	35.5	2	6	112	0.00	29.809 
22:35	36.3	36.3	36.3	95	35.0	2	8	112	0.00	29.809 
22:40	36.2	36.2	36.2	96	35.2	2	9	112	0.00	29.809 
22:45	36.2	36.2	36.2	95	34.9	2	9	112	0.00	29.790 
22:50	36.0	36.0	36.0	96	35.0	3	5	90	0.00	29.790 
22:55	36.0	36.0	36.0	96	35.0	2	5	90	0.00	29.790 
23:00	35.9	35.9	35.9	95	34.6	3	8	90	0.00	29.794 
23:05	35.9	35.9	35.9	96	34.9	3	6	90	0.00	29.794 
23:10	35.8	35.8	35.8	96	34.8	3	7	112	0.00	29.794 
23:15	35.8	35.8	35.8	96	34.8	1	5	90	0.00	29.782 
23:20	35.8	35.8	35.8	96	34.8	3	8	90	0.00	29.782 
23:25	35.8	35.8	35.8	96	34.8	2	10	90	0.00	29.782 
23:30	35.8	35.8	35.8	96	34.8	2	7	90	0.00	29.763 
23:35	35.8	35.8	35.8	96	34.8	3	10	112	0.00	29.763 
23:40	35.8	35.8	35.8	96	34.8	2	7	68	0.00	29.763 
23:45	35.8	35.8	35.8	96	34.8	3	7	112	0.00	29.750 
23:50	35.8	35.8	35.8	96	34.8	1	6	90	0.00	29.750 
23:55	35.9	32.6	35.9	96	34.9	4	11	112	0.00	29.750 

CoCoRaHS
IN-AL-39
A2 Web Hosting
Creative Commons License
GoDaddy
search engine by freefind advanced

loaded 2018-11-18 11:46:22 • last modified 2010-11-18 10:43:29
Privacy PolicyDisclaimer
• wx.awcolley.com is powered by PmWiki v.2002016 •
• all content (unless otherwise noted) © 2018 A W Colley